Tourist Ferry Boat 3 — IQAQ — position and weather

sailwx.info

Track history (hours):
 
Tides and Currents Weather Stations Pressure Air Temp Water Temp Dewpoint Dewpoint Depression Visibility Wind Speed Wind Dir Waves Ship Positions

Tourist Ferry Boat 3

Last reported at 2017-Jun-24 12:49 UTC. Time now 2017-Jun-25 08:58 UTC.
Position N 40°49' E 014°07'.

Length 58 m; draft 1.8 m.

Type: Ship. MMSI: 247048900.

Date/timePositionNaut miles runAvg speedWind from/ knotsBaromVisibWave heightAir tempDewpointWater temp
2017-Jun-24 12:49N 40°49' E 014°07'0 0.0
2017-Jun-24 11:50N 40°49' E 014°07'0 0.0
2017-Jun-24 11:25N 40°49' E 014°07'0 0.0
2017-Jun-23 16:01N 40°49' E 014°07'0 0.5
2017-Jun-23 15:46N 40°49' E 014°07'2 5.5
2017-Jun-23 15:29N 40°48' E 014°06'4 6.8
2017-Jun-23 14:55N 40°46' E 014°02'4 4.9
2017-Jun-23 14:00N 40°49' E 014°06'1 1.5
2017-Jun-23 13:30N 40°49' E 014°07'0 0.0
2017-Jun-23 12:57N 40°49' E 014°07'1 1.9
2017-Jun-23 12:30N 40°49' E 014°06'4 6.8
2017-Jun-23 11:58N 40°46' E 014°03'0 0.2
2017-Jun-23 11:29N 40°46' E 014°03'3 6.2
2017-Jun-23 10:59N 40°48' E 014°06'1 1.9
2017-Jun-23 10:15N 40°49' E 014°06'2 8.4
2017-Jun-23 09:59N 40°47' E 014°06'4 6.4
2017-Jun-23 09:26N 40°46' E 014°02'3 5.8
2017-Jun-23 08:54N 40°47' E 014°06'1 0.7
2017-Jun-23 07:04N 40°48' E 014°06'110.6
2017-Jun-23 07:00N 40°47' E 014°06'3 4.6
2017-Jun-23 06:19N 40°46' E 014°02'3 9.5
2017-Jun-23 06:00N 40°47' E 014°06'3 5.6
2017-Jun-23 05:28N 40°49' E 014°07'0 0.0
2017-Jun-22 15:30N 40°49' E 014°07'4 7.9
2017-Jun-22 14:58N 40°46' E 014°03'1 2.3
2017-Jun-22 14:30N 40°46' E 014°02'5 4.8
2017-Jun-22 13:28N 40°49' E 014°07'0 0.0
2017-Jun-22 12:43N 40°49' E 014°07'0 0.0
2017-Jun-22 12:30N 40°49' E 014°07'2 3.3
2017-Jun-22 12:00N 40°48' E 014°06'3 4.1
2017-Jun-22 11:15N 40°46' E 014°03'3 9.0
2017-Jun-22 10:59N 40°47' E 014°06'2 5.0
2017-Jun-22 10:29N 40°49' E 014°07'0 0.1
2017-Jun-22 07:08N 40°49' E 014°06'211.0
2017-Jun-22 06:58N 40°48' E 014°06'3 3.6
2017-Jun-22 06:10N 40°46' E 014°03'2 9.9
2017-Jun-22 06:00N 40°46' E 014°05'3 6.4
2017-Jun-22 05:28N 40°49' E 014°07'0 0.0
2017-Jun-21 15:18N 40°49' E 014°06'5 5.4
2017-Jun-21 14:28N 40°46' E 014°02'5 5.1
2017-Jun-21 13:30N 40°49' E 014°07'0 0.0
2017-Jun-21 12:27N 40°49' E 014°07'2 5.4
2017-Jun-21 12:00N 40°47' E 014°06'1 0.3
2017-Jun-21 09:59N 40°48' E 014°06'3 3.5
2017-Jun-21 09:07N 40°46' E 014°03'1 8.1
2017-Jun-21 08:58N 40°46' E 014°04'4 2.0
2017-Jun-21 07:09N 40°49' E 014°07'1 9.5
2017-Jun-21 07:00N 40°48' E 014°06'4 5.0
2017-Jun-21 06:16N 40°46' E 014°02'3 9.9
2017-Jun-21 06:00N 40°46' E 014°06'3 0.2
2017-Jun-20 15:28N 40°49' E 014°07'5 7.4
2017-Jun-20 14:47N 40°46' E 014°02'0 0.6
2017-Jun-20 14:29N 40°46' E 014°02'5 5.0
2017-Jun-20 13:31N 40°49' E 014°07'0 0.0
2017-Jun-20 13:00N 40°49' E 014°07'0 0.0
2017-Jun-20 12:30N 40°49' E 014°07'3 4.7
2017-Jun-20 11:50N 40°46' E 014°05'1 1.3
2017-Jun-20 11:10N 40°46' E 014°04'2 8.5
2017-Jun-20 10:56N 40°48' E 014°06'2 2.1
2017-Jun-20 10:05N 40°49' E 014°07'1 9.0
2017-Jun-20 09:57N 40°48' E 014°06'4 8.5
2017-Jun-20 09:30N 40°46' E 014°02'2 2.8
2017-Jun-20 08:58N 40°46' E 014°04'4 8.3
2017-Jun-20 08:30N 40°49' E 014°07'0 0.1
2017-Jun-20 07:09N 40°49' E 014°07'210.0
2017-Jun-20 06:58N 40°48' E 014°06'4 5.4
2017-Jun-20 06:16N 40°46' E 014°02'310.1
2017-Jun-20 06:00N 40°46' E 014°05'  
2017-Jun-17 11:44N 40°46' E 014°03'1 3.3
2017-Jun-17 11:22N 40°46' E 014°02'4 8.2
2017-Jun-17 10:51N 40°49' E 014°06'0 0.0
2017-Jun-17 03:50N 40°49' E 014°06'1 0.1
2017-Jun-16 15:25N 40°49' E 014°07'4 4.2
2017-Jun-16 14:25N 40°46' E 014°03'4 4.6
2017-Jun-16 13:30N 40°49' E 014°07'5 0.4
2017-Jun-15 23:11N 40°46' E 014°02'5 0.7
2017-Jun-15 15:26N 40°49' E 014°07'0 0.0
2017-Jun-15 12:26N 40°49' E 014°07'4 8.5
2017-Jun-15 12:00N 40°46' E 014°05'2 2.5
2017-Jun-15 11:24N 40°46' E 014°03'5 3.7
2017-Jun-15 10:08N 40°49' E 014°07'0 1.5
2017-Jun-15 10:01N 40°49' E 014°07'4 8.7
2017-Jun-15 09:30N 40°46' E 014°03'0 0.2
2017-Jun-15 09:00N 40°46' E 014°03'4 8.4
2017-Jun-15 08:30N 40°49' E 014°07'0 0.6
2017-Jun-15 08:00N 40°49' E 014°07'0 0.0
2017-Jun-15 07:30N 40°49' E 014°07'1 2.3
2017-Jun-15 07:00N 40°48' E 014°06'4 5.0
2017-Jun-15 06:15N 40°46' E 014°02'4 8.5
2017-Jun-15 05:48N 40°49' E 014°06'1 2.1
2017-Jun-15 05:16N 40°49' E 014°07'3 9.3
2017-Jun-15 04:55N 40°46' E 014°05'3 0.2
2017-Jun-14 15:24N 40°49' E 014°07'3 8.4
2017-Jun-14 15:01N 40°46' E 014°06'2 2.2
2017-Jun-14 14:00N 40°49' E 014°06'1 2.2
2017-Jun-14 13:30N 40°49' E 014°07'  
Track history (hours):
 
Tides and Currents Weather Stations Pressure Air Temp Water Temp Dewpoint Dewpoint Depression Visibility Wind Speed Wind Dir Waves Ship Positions

Tourist Ferry Boat 3

Last reported at 2017-Jun-24 12:49 UTC. Time now 2017-Jun-25 08:58 UTC.
Position N 40°49' E 014°07'.

Length 58 m; draft 1.8 m.

Type: Ship. MMSI: 247048900.

Date/timePositionNaut miles runAvg speedWind from/ knotsBaromVisibWave heightAir tempDewpointWater temp
2017-Jun-24 12:49N 40°49' E 014°07'0 0.0
2017-Jun-24 11:50N 40°49' E 014°07'0 0.0
2017-Jun-24 11:25N 40°49' E 014°07'0 0.0
2017-Jun-23 16:01N 40°49' E 014°07'0 0.5
2017-Jun-23 15:46N 40°49' E 014°07'2 5.5
2017-Jun-23 15:29N 40°48' E 014°06'4 6.8
2017-Jun-23 14:55N 40°46' E 014°02'4 4.9
2017-Jun-23 14:00N 40°49' E 014°06'1 1.5
2017-Jun-23 13:30N 40°49' E 014°07'0 0.0
2017-Jun-23 12:57N 40°49' E 014°07'1 1.9
2017-Jun-23 12:30N 40°49' E 014°06'4 6.8
2017-Jun-23 11:58N 40°46' E 014°03'0 0.2
2017-Jun-23 11:29N 40°46' E 014°03'3 6.2
2017-Jun-23 10:59N 40°48' E 014°06'1 1.9
2017-Jun-23 10:15N 40°49' E 014°06'2 8.4
2017-Jun-23 09:59N 40°47' E 014°06'4 6.4
2017-Jun-23 09:26N 40°46' E 014°02'3 5.8
2017-Jun-23 08:54N 40°47' E 014°06'1 0.7
2017-Jun-23 07:04N 40°48' E 014°06'110.6
2017-Jun-23 07:00N 40°47' E 014°06'3 4.6
2017-Jun-23 06:19N 40°46' E 014°02'3 9.5
2017-Jun-23 06:00N 40°47' E 014°06'3 5.6
2017-Jun-23 05:28N 40°49' E 014°07'0 0.0
2017-Jun-22 15:30N 40°49' E 014°07'4 7.9
2017-Jun-22 14:58N 40°46' E 014°03'1 2.3
2017-Jun-22 14:30N 40°46' E 014°02'5 4.8
2017-Jun-22 13:28N 40°49' E 014°07'0 0.0
2017-Jun-22 12:43N 40°49' E 014°07'0 0.0
2017-Jun-22 12:30N 40°49' E 014°07'2 3.3
2017-Jun-22 12:00N 40°48' E 014°06'3 4.1
2017-Jun-22 11:15N 40°46' E 014°03'3 9.0
2017-Jun-22 10:59N 40°47' E 014°06'2 5.0
2017-Jun-22 10:29N 40°49' E 014°07'0 0.1
2017-Jun-22 07:08N 40°49' E 014°06'211.0
2017-Jun-22 06:58N 40°48' E 014°06'3 3.6
2017-Jun-22 06:10N 40°46' E 014°03'2 9.9
2017-Jun-22 06:00N 40°46' E 014°05'3 6.4
2017-Jun-22 05:28N 40°49' E 014°07'0 0.0
2017-Jun-21 15:18N 40°49' E 014°06'5 5.4
2017-Jun-21 14:28N 40°46' E 014°02'5 5.1
2017-Jun-21 13:30N 40°49' E 014°07'0 0.0
2017-Jun-21 12:27N 40°49' E 014°07'2 5.4
2017-Jun-21 12:00N 40°47' E 014°06'1 0.3
2017-Jun-21 09:59N 40°48' E 014°06'3 3.5
2017-Jun-21 09:07N 40°46' E 014°03'1 8.1
2017-Jun-21 08:58N 40°46' E 014°04'4 2.0
2017-Jun-21 07:09N 40°49' E 014°07'1 9.5
2017-Jun-21 07:00N 40°48' E 014°06'4 5.0
2017-Jun-21 06:16N 40°46' E 014°02'3 9.9
2017-Jun-21 06:00N 40°46' E 014°06'3 0.2
2017-Jun-20 15:28N 40°49' E 014°07'5 7.4
2017-Jun-20 14:47N 40°46' E 014°02'0 0.6
2017-Jun-20 14:29N 40°46' E 014°02'5 5.0
2017-Jun-20 13:31N 40°49' E 014°07'0 0.0
2017-Jun-20 13:00N 40°49' E 014°07'0 0.0
2017-Jun-20 12:30N 40°49' E 014°07'3 4.7
2017-Jun-20 11:50N 40°46' E 014°05'1 1.3
2017-Jun-20 11:10N 40°46' E 014°04'2 8.5
2017-Jun-20 10:56N 40°48' E 014°06'2 2.1
2017-Jun-20 10:05N 40°49' E 014°07'1 9.0
2017-Jun-20 09:57N 40°48' E 014°06'4 8.5
2017-Jun-20 09:30N 40°46' E 014°02'2 2.8
2017-Jun-20 08:58N 40°46' E 014°04'4 8.3
2017-Jun-20 08:30N 40°49' E 014°07'0 0.1
2017-Jun-20 07:09N 40°49' E 014°07'210.0
2017-Jun-20 06:58N 40°48' E 014°06'4 5.4
2017-Jun-20 06:16N 40°46' E 014°02'310.1
2017-Jun-20 06:00N 40°46' E 014°05'  
2017-Jun-17 11:44N 40°46' E 014°03'1 3.3
2017-Jun-17 11:22N 40°46' E 014°02'4 8.2
2017-Jun-17 10:51N 40°49' E 014°06'0 0.0
2017-Jun-17 03:50N 40°49' E 014°06'1 0.1
2017-Jun-16 15:25N 40°49' E 014°07'4 4.2
2017-Jun-16 14:25N 40°46' E 014°03'4 4.6
2017-Jun-16 13:30N 40°49' E 014°07'5 0.4
2017-Jun-15 23:11N 40°46' E 014°02'5 0.7
2017-Jun-15 15:26N 40°49' E 014°07'0 0.0
2017-Jun-15 12:26N 40°49' E 014°07'4 8.5
2017-Jun-15 12:00N 40°46' E 014°05'2 2.5
2017-Jun-15 11:24N 40°46' E 014°03'5 3.7
2017-Jun-15 10:08N 40°49' E 014°07'0 1.5
2017-Jun-15 10:01N 40°49' E 014°07'4 8.7
2017-Jun-15 09:30N 40°46' E 014°03'0 0.2
2017-Jun-15 09:00N 40°46' E 014°03'4 8.4
2017-Jun-15 08:30N 40°49' E 014°07'0 0.6
2017-Jun-15 08:00N 40°49' E 014°07'0 0.0
2017-Jun-15 07:30N 40°49' E 014°07'1 2.3
2017-Jun-15 07:00N 40°48' E 014°06'4 5.0
2017-Jun-15 06:15N 40°46' E 014°02'4 8.5
2017-Jun-15 05:48N 40°49' E 014°06'1 2.1
2017-Jun-15 05:16N 40°49' E 014°07'3 9.3
2017-Jun-15 04:55N 40°46' E 014°05'3 0.2
2017-Jun-14 15:24N 40°49' E 014°07'3 8.4
2017-Jun-14 15:01N 40°46' E 014°06'2 2.2
2017-Jun-14 14:00N 40°49' E 014°06'1 2.2
2017-Jun-14 13:30N 40°49' E 014°07'  

Dump ship's entire track history